Time;durP1;ratioP1;P1;durP2;ratioP2;P2;SDS_P1;SDS_P2;PMS_P1;PMS_P2;Temp;Humidity;BMP_temperature;BMP_pressure;BME280_temperature;BME280_humidity;BME280_pressure;Samples;Min_cycle;Max_cycle;Signal;HPM_P1;HPM_P2
2022/03/02 00:05:06;;;;;;;;;;;1.10;78.80;;;;;;5152284;27;19933;-84
2022/03/02 00:07:31;;;;;;;;;;;1.00;80.50;;;;;;5152236;27;20288;-84
2022/03/02 00:09:57;;;;;;;;;;;1.10;80.70;;;;;;5137432;27;19908;-84
2022/03/02 00:12:22;;;;;;;;;;;1.40;80.10;;;;;;5131476;28;19908;-84
2022/03/02 00:14:48;;;;;;;;;;;1.30;79.00;;;;;;5131630;28;20357;-84
2022/03/02 00:17:14;;;;;;;;;;;1.20;79.00;;;;;;5131358;28;20276;-84
2022/03/02 00:19:39;;;;;;;;;;;1.30;78.80;;;;;;5131312;28;19912;-84
2022/03/02 00:22:05;;;;;;;;;;;1.40;77.70;;;;;;5131271;28;19908;-84
2022/03/02 00:24:30;;;;;;;;;;;1.50;76.90;;;;;;5131390;28;19912;-84
2022/03/02 00:26:57;;;;;;;;;;;1.50;77.50;;;;;;5131142;28;20392;-84
2022/03/02 00:29:23;;;;;;;;;;;1.50;78.40;;;;;;5131238;28;20048;-84
2022/03/02 00:34:00;;;;;;;;;;;1.40;78.70;;;;;;5102451;27;2012681;-84
2022/03/02 00:36:25;;;;;;;;;;;1.20;80.50;;;;;;5173055;27;20324;-83
2022/03/02 00:39:27;;;;;;;;;;;1.00;78.90;;;;;;5111132;27;19912;-83
2022/03/02 00:41:53;;;;;;;;;;;1.10;79.00;;;;;;5111015;28;19995;-83
2022/03/02 00:44:18;;;;;;;;;;;1.10;79.30;;;;;;5111584;28;20314;-83
2022/03/02 00:46:44;;;;;;;;;;;0.90;79.90;;;;;;5110983;28;20373;-83
2022/03/02 00:49:10;;;;;;;;;;;0.70;81.30;;;;;;5110922;28;19930;-84
2022/03/02 00:51:35;;;;;;;;;;;0.70;81.60;;;;;;5110941;28;19911;-84
2022/03/02 00:54:01;;;;;;;;;;;0.90;81.60;;;;;;5110826;28;19934;-84
2022/03/02 00:56:27;;;;;;;;;;;1.20;81.10;;;;;;5110775;28;20381;-84
2022/03/02 00:58:52;;;;;;;;;;;1.30;80.30;;;;;;5110626;28;19912;-84
2022/03/02 01:01:18;;;;;;;;;;;1.40;79.60;;;;;;5110697;28;20408;-84
2022/03/02 01:03:43;;;;;;;;;;;1.20;78.70;;;;;;5110648;28;19908;-84
2022/03/02 01:06:10;;;;;;;;;;;1.20;79.20;;;;;;5110553;28;20350;-84
2022/03/02 01:08:35;;;;;;;;;;;1.20;79.30;;;;;;5110470;28;19954;-84
2022/03/02 01:11:01;;;;;;;;;;;1.30;79.50;;;;;;5110480;28;20361;-83
2022/03/02 01:26:02;;;;;;;;;;;1.40;79.30;;;;;;5111050;27;20407;-84
2022/03/02 01:33:29;;;;;;;;;;;0.90;80.10;;;;;;5131637;27;19912;-84
2022/03/02 01:35:54;;;;;;;;;;;1.00;80.00;;;;;;5131564;27;19918;-84
2022/03/02 01:38:20;;;;;;;;;;;1.00;80.30;;;;;;5131497;27;19966;-84
2022/03/02 01:40:46;;;;;;;;;;;1.10;80.70;;;;;;5131668;27;19908;-84
2022/03/02 01:43:12;;;;;;;;;;;1.10;80.60;;;;;;5131404;27;20365;-84
2022/03/02 01:45:38;;;;;;;;;;;0.50;79.00;;;;;;5131334;27;19915;-84
2022/03/02 01:48:04;;;;;;;;;;;0.60;79.80;;;;;;5131311;27;19911;-84
2022/03/02 01:50:30;;;;;;;;;;;0.80;79.70;;;;;;5131264;27;19961;-84
2022/03/02 01:52:56;;;;;;;;;;;1.00;80.10;;;;;;5131157;27;19951;-84
2022/03/02 01:58:23;;;;;;;;;;;1.10;80.10;;;;;;5152351;27;19936;-84
2022/03/02 02:00:49;;;;;;;;;;;1.40;78.20;;;;;;5152221;27;20364;-84
2022/03/02 02:06:59;;;;;;;;;;;1.20;77.70;;;;;;5111060;27;19919;-84
2022/03/02 02:09:25;;;;;;;;;;;1.00;81.00;;;;;;5110874;28;20002;-84
2022/03/02 02:12:28;;;;;;;;;;;1.20;80.70;;;;;;5111137;27;19912;-84
2022/03/02 02:14:54;;;;;;;;;;;1.30;80.60;;;;;;5111231;28;20003;-84
2022/03/02 02:17:19;;;;;;;;;;;1.40;80.60;;;;;;5110947;28;20271;-84
2022/03/02 02:19:45;;;;;;;;;;;1.40;80.60;;;;;;5110903;28;19915;-84
2022/03/02 02:22:10;;;;;;;;;;;1.40;79.90;;;;;;5110816;28;19907;-84
2022/03/02 02:24:36;;;;;;;;;;;1.40;79.00;;;;;;5110832;28;19922;-84
2022/03/02 02:27:02;;;;;;;;;;;1.40;78.50;;;;;;5109446;28;19908;-84
2022/03/02 02:29:28;;;;;;;;;;;1.40;78.20;;;;;;5109313;28;19908;-84
2022/03/02 02:31:54;;;;;;;;;;;1.40;77.90;;;;;;5110611;28;20058;-84
2022/03/02 02:34:19;;;;;;;;;;;1.40;77.50;;;;;;5110654;28;20398;-84
2022/03/02 02:36:45;;;;;;;;;;;1.30;77.60;;;;;;5110619;28;19908;-84
2022/03/02 02:39:11;;;;;;;;;;;1.20;77.50;;;;;;5110568;28;19957;-84
2022/03/02 02:58:31;;;;;;;;;;;0.90;77.90;;;;;;5080620;27;2050310;-84
2022/03/02 03:00:56;;;;;;;;;;;0.50;79.90;;;;;;5152224;27;20369;-84
2022/03/02 03:03:22;;;;;;;;;;;0.60;79.50;;;;;;5152223;27;19951;-84
2022/03/02 03:08:16;;;;;;;;;;;0.70;79.30;;;;;;5007404;28;19928;-84
2022/03/02 03:10:43;;;;;;;;;;;0.90;78.40;;;;;;5007452;28;19914;-84
2022/03/02 03:13:09;;;;;;;;;;;1.00;77.70;;;;;;5007341;28;19910;-84
2022/03/02 03:15:35;;;;;;;;;;;0.90;77.10;;;;;;5007320;28;20319;-84
2022/03/02 03:18:01;;;;;;;;;;;0.80;77.30;;;;;;5007296;28;19918;-84
2022/03/02 03:20:27;;;;;;;;;;;0.70;77.60;;;;;;5007256;28;20374;-84
2022/03/02 03:22:53;;;;;;;;;;;0.70;78.60;;;;;;5007241;28;19956;-84
2022/03/02 03:25:19;;;;;;;;;;;0.70;78.40;;;;;;5007136;28;19917;-84
2022/03/02 03:27:45;;;;;;;;;;;0.60;78.50;;;;;;5007343;28;19913;-84
2022/03/02 03:31:05;;;;;;;;;;;0.30;79.10;;;;;;5111046;27;20393;-84
2022/03/02 03:33:31;;;;;;;;;;;0.20;80.30;;;;;;5111031;28;19994;-84
2022/03/02 03:35:56;;;;;;;;;;;0.20;80.10;;;;;;5110983;28;19919;-84
2022/03/02 03:38:22;;;;;;;;;;;0.10;79.20;;;;;;5110947;28;19915;-84
2022/03/02 03:45:10;;;;;;;;;;;0.00;79.00;;;;;;5131655;27;19911;-84
2022/03/02 03:47:36;;;;;;;;;;;0.00;78.90;;;;;;5131522;28;19911;-84
2022/03/02 03:50:02;;;;;;;;;;;0.00;79.10;;;;;;5131436;28;19911;-84
2022/03/02 03:52:28;;;;;;;;;;;0.00;79.10;;;;;;5131376;28;19915;-84
2022/03/02 03:54:54;;;;;;;;;;;0.00;79.20;;;;;;5131382;28;19912;-84
2022/03/02 03:57:19;;;;;;;;;;;0.10;78.50;;;;;;5131515;28;19908;-84
2022/03/02 03:59:45;;;;;;;;;;;0.00;78.40;;;;;;5131200;28;19947;-84
2022/03/02 04:02:11;;;;;;;;;;;0.00;78.70;;;;;;5131264;28;19961;-84
2022/03/02 04:04:36;;;;;;;;;;;0.10;78.30;;;;;;5112654;28;20359;-84
2022/03/02 04:07:02;;;;;;;;;;;0.10;77.80;;;;;;5131080;28;20009;-84
2022/03/02 04:09:27;;;;;;;;;;;0.00;77.80;;;;;;5141476;27;19953;-84
2022/03/02 04:11:53;;;;;;;;;;;0.00;77.70;;;;;;5151716;27;19930;-84
2022/03/02 04:14:18;;;;;;;;;;;0.00;77.90;;;;;;5151768;27;20199;-84
2022/03/02 04:16:44;;;;;;;;;;;0.00;78.10;;;;;;5151590;27;19908;-84
2022/03/02 04:19:10;;;;;;;;;;;0.00;78.30;;;;;;5151585;27;19968;-84
2022/03/02 04:21:35;;;;;;;;;;;0.10;78.10;;;;;;5133005;27;19938;-84
2022/03/02 04:24:01;;;;;;;;;;;0.30;77.10;;;;;;5151419;27;19915;-84
2022/03/02 04:26:26;;;;;;;;;;;0.20;76.50;;;;;;5132892;27;19908;-84
2022/03/02 04:28:52;;;;;;;;;;;0.10;76.80;;;;;;5132826;27;19951;-84
2022/03/02 04:31:17;;;;;;;;;;;0.10;77.70;;;;;;5151316;27;20280;-84
2022/03/02 04:33:43;;;;;;;;;;;0.00;78.30;;;;;;5151264;27;19914;-84
2022/03/02 04:36:09;;;;;;;;;;;0.00;78.50;;;;;;5151318;27;19907;-84
2022/03/02 04:38:35;;;;;;;;;;;0.00;78.90;;;;;;5151493;27;19911;-84
2022/03/02 04:41:01;;;;;;;;;;;0.10;78.70;;;;;;5151172;27;19908;-84
2022/03/02 04:43:26;;;;;;;;;;;0.20;78.50;;;;;;5150712;27;19959;-84
2022/03/02 04:45:52;;;;;;;;;;;0.40;78.00;;;;;;5151323;27;19915;-84
2022/03/02 04:48:17;;;;;;;;;;;0.40;77.90;;;;;;5151019;27;20361;-84
2022/03/02 04:50:43;;;;;;;;;;;0.50;77.80;;;;;;5150948;27;20426;-84
2022/03/02 04:53:09;;;;;;;;;;;0.50;77.80;;;;;;5150951;27;19929;-84
2022/03/02 04:55:34;;;;;;;;;;;0.60;77.50;;;;;;5142571;27;19914;-84
2022/03/02 04:58:00;;;;;;;;;;;0.70;77.00;;;;;;5137065;27;20482;-84
2022/03/02 05:00:27;;;;;;;;;;;0.60;76.40;;;;;;5137231;27;19907;-84
2022/03/02 05:02:53;;;;;;;;;;;0.40;76.80;;;;;;5136874;27;19954;-84
2022/03/02 05:05:21;;;;;;;;;;;0.20;77.70;;;;;;5118473;27;19907;-84
2022/03/02 05:07:47;;;;;;;;;;;0.20;78.40;;;;;;5118416;27;20361;-84
2022/03/02 05:10:13;;;;;;;;;;;0.00;79.20;;;;;;5136757;27;19911;-83
2022/03/02 05:13:50;;;;;;;;;;;0.00;79.70;;;;;;5111077;27;19912;-83
2022/03/02 05:16:15;;;;;;;;;;;0.00;80.30;;;;;;5110917;28;20007;-83
2022/03/02 05:18:44;;;;;;;;;;;-3276.70;80.30;;;;;;5110947;28;20460;-84
2022/03/02 05:21:10;;;;;;;;;;;-3276.70;79.90;;;;;;5110830;28;20368;-83
2022/03/02 05:23:35;;;;;;;;;;;-3276.70;79.90;;;;;;5110842;28;19908;-84
2022/03/02 05:26:01;;;;;;;;;;;-3276.70;79.20;;;;;;5110823;28;19943;-84
2022/03/02 05:28:26;;;;;;;;;;;0.00;79.00;;;;;;5110725;28;19990;-84
2022/03/02 05:30:52;;;;;;;;;;;0.10;79.40;;;;;;5110597;28;19912;-84
2022/03/02 05:33:17;;;;;;;;;;;0.10;78.60;;;;;;5110557;28;19912;-84
2022/03/02 05:35:43;;;;;;;;;;;0.10;79.10;;;;;;5110645;28;20003;-84
2022/03/02 05:38:08;;;;;;;;;;;0.10;79.70;;;;;;5109285;28;20393;-84
2022/03/02 05:40:34;;;;;;;;;;;0.00;80.90;;;;;;5110505;28;20305;-84
2022/03/02 05:42:59;;;;;;;;;;;-3276.70;81.30;;;;;;5110523;28;19930;-83
2022/03/02 05:45:25;;;;;;;;;;;-3276.40;81.50;;;;;;5110527;28;19908;-84
2022/03/02 05:47:50;;;;;;;;;;;-3276.20;82.60;;;;;;5110433;28;19939;-84
2022/03/02 05:50:16;;;;;;;;;;;-3276.20;83.50;;;;;;5110658;28;19909;-83
2022/03/02 05:52:41;;;;;;;;;;;-3276.20;84.00;;;;;;5110253;28;19916;-83
2022/03/02 05:55:08;;;;;;;;;;;-3276.30;83.60;;;;;;5104719;28;19913;-84
2022/03/02 05:57:34;;;;;;;;;;;-3276.20;83.00;;;;;;5103765;28;19912;-84
2022/03/02 06:00:00;;;;;;;;;;;-3276.10;82.90;;;;;;5104813;28;20393;-83
2022/03/02 06:02:25;;;;;;;;;;;-3276.20;82.80;;;;;;5108993;28;19915;-83
2022/03/02 06:04:51;;;;;;;;;;;-3276.20;82.20;;;;;;5105116;28;19912;-83
2022/03/02 06:07:17;;;;;;;;;;;-3276.30;81.60;;;;;;5091669;28;19908;-84
2022/03/02 06:09:42;;;;;;;;;;;-3276.20;81.80;;;;;;5089535;28;19916;-83
2022/03/02 06:12:09;;;;;;;;;;;-3276.30;81.50;;;;;;5100300;28;19966;-83
2022/03/02 06:14:34;;;;;;;;;;;-3276.30;81.30;;;;;;5106820;28;19918;-84
2022/03/02 06:17:00;;;;;;;;;;;-3276.20;81.50;;;;;;5113024;28;20075;-84
2022/03/02 06:19:26;;;;;;;;;;;-3276.10;81.80;;;;;;5130307;28;19915;-84
2022/03/02 06:21:52;;;;;;;;;;;-3276.10;82.40;;;;;;5110917;28;19908;-84
2022/03/02 06:24:17;;;;;;;;;;;-3276.20;82.50;;;;;;5090134;28;19912;-83
2022/03/02 06:26:44;;;;;;;;;;;-3276.20;81.90;;;;;;5087840;28;19934;-83
2022/03/02 06:29:09;;;;;;;;;;;-3276.10;81.50;;;;;;5095958;28;19977;-83
2022/03/02 06:31:35;;;;;;;;;;;-3276.10;81.90;;;;;;5090969;28;20362;-84
2022/03/02 06:34:01;;;;;;;;;;;-3276.10;82.20;;;;;;5080030;28;19913;-84
2022/03/02 06:36:27;;;;;;;;;;;-3276.10;81.80;;;;;;5077895;28;20313;-84
2022/03/02 06:38:52;;;;;;;;;;;-3276.20;81.10;;;;;;5084768;28;19919;-84
2022/03/02 06:41:27;;;;;;;;;;;-3276.30;81.10;;;;;;5086156;28;19913;-84
2022/03/02 06:44:00;;;;;;;;;;;-3276.40;81.10;;;;;;5083240;28;19926;-84
2022/03/02 06:46:31;;;;;;;;;;;-3276.50;81.10;;;;;;5094241;28;19912;-84
2022/03/02 06:49:00;;;;;;;;;;;-3276.70;81.40;;;;;;5080245;28;20388;-84
2022/03/02 06:51:29;;;;;;;;;;;-3276.70;81.10;;;;;;5090967;28;19912;-84
2022/03/02 06:53:56;;;;;;;;;;;0.00;80.00;;;;;;5090789;28;19961;-84
2022/03/02 06:56:22;;;;;;;;;;;0.00;78.90;;;;;;5081349;28;19916;-84
2022/03/02 06:58:49;;;;;;;;;;;0.10;78.30;;;;;;5088832;28;19940;-84
2022/03/02 07:01:18;;;;;;;;;;;0.20;77.70;;;;;;5093335;28;19912;-84
2022/03/02 07:03:47;;;;;;;;;;;0.30;78.00;;;;;;5092535;28;20372;-84
2022/03/02 07:06:14;;;;;;;;;;;0.40;77.70;;;;;;5091671;28;19941;-84
2022/03/02 07:08:42;;;;;;;;;;;0.50;78.40;;;;;;5084124;28;20014;-84
2022/03/02 07:11:08;;;;;;;;;;;0.60;77.60;;;;;;5088872;28;19952;-84
2022/03/02 07:13:34;;;;;;;;;;;0.60;78.00;;;;;;5086068;28;20548;-84
2022/03/02 07:16:00;;;;;;;;;;;0.60;78.70;;;;;;5085440;28;19920;-84
2022/03/02 07:18:27;;;;;;;;;;;0.70;78.90;;;;;;5087289;28;19927;-84
2022/03/02 07:20:55;;;;;;;;;;;0.80;79.00;;;;;;5083692;28;19978;-84
2022/03/02 07:23:21;;;;;;;;;;;1.00;77.90;;;;;;5078069;28;20369;-84
2022/03/02 07:25:47;;;;;;;;;;;1.20;77.90;;;;;;5081991;28;21189;-84
2022/03/02 07:28:13;;;;;;;;;;;1.30;77.90;;;;;;5082571;28;19920;-84
2022/03/02 07:30:39;;;;;;;;;;;1.50;78.00;;;;;;5085033;28;19924;-84
2022/03/02 07:33:05;;;;;;;;;;;1.70;78.10;;;;;;5085124;28;19916;-85
2022/03/02 07:35:31;;;;;;;;;;;1.80;77.60;;;;;;5088528;28;19920;-85
2022/03/02 07:37:57;;;;;;;;;;;2.00;75.40;;;;;;5089005;28;19912;-84
2022/03/02 07:40:23;;;;;;;;;;;2.10;75.20;;;;;;5089912;28;21431;-85
2022/03/02 07:42:49;;;;;;;;;;;2.10;73.70;;;;;;5087374;28;20389;-85
2022/03/02 07:45:15;;;;;;;;;;;2.20;74.00;;;;;;5088309;28;19919;-85
2022/03/02 07:47:40;;;;;;;;;;;2.30;73.90;;;;;;5090797;28;19938;-85
2022/03/02 07:51:52;;;;;;;;;;;2.40;72.20;;;;;;5089838;27;20378;-85
2022/03/02 07:54:20;;;;;;;;;;;2.50;71.80;;;;;;5091290;28;19997;-85
2022/03/02 07:56:46;;;;;;;;;;;2.60;70.60;;;;;;5123390;27;19935;-85
2022/03/02 07:59:12;;;;;;;;;;;2.70;69.40;;;;;;5095984;28;19927;-85
2022/03/02 08:01:38;;;;;;;;;;;2.80;68.50;;;;;;5089375;28;19951;-85
2022/03/02 08:04:05;;;;;;;;;;;2.90;69.30;;;;;;5092699;28;20408;-86
2022/03/02 08:06:32;;;;;;;;;;;3.00;70.20;;;;;;5086817;28;19927;-86
2022/03/02 08:08:58;;;;;;;;;;;3.00;69.60;;;;;;5090233;28;20293;-86
2022/03/02 08:11:24;;;;;;;;;;;3.30;68.10;;;;;;5085480;28;19920;-86
2022/03/02 08:13:50;;;;;;;;;;;3.50;67.60;;;;;;5081828;28;19917;-86
2022/03/02 08:16:15;;;;;;;;;;;3.70;67.10;;;;;;5083271;28;20434;-86
2022/03/02 08:18:41;;;;;;;;;;;3.90;66.20;;;;;;5087654;28;20328;-86
2022/03/02 08:21:07;;;;;;;;;;;3.90;65.30;;;;;;5080498;28;19921;-86
2022/03/02 08:23:38;;;;;;;;;;;4.10;65.10;;;;;;5089294;28;19935;-85
2022/03/02 08:26:04;;;;;;;;;;;4.10;65.40;;;;;;5081081;28;19927;-85
2022/03/02 08:28:32;;;;;;;;;;;4.20;64.90;;;;;;5083214;28;19916;-84
2022/03/02 08:30:58;;;;;;;;;;;4.30;64.10;;;;;;5076632;28;19916;-84
2022/03/02 08:33:29;;;;;;;;;;;4.30;64.30;;;;;;5078760;28;19966;-85
2022/03/02 08:35:55;;;;;;;;;;;4.40;63.80;;;;;;5083303;28;19971;-85
2022/03/02 08:38:21;;;;;;;;;;;4.40;63.30;;;;;;5088246;28;19920;-84
2022/03/02 08:40:47;;;;;;;;;;;4.50;63.70;;;;;;5079988;28;20023;-85
2022/03/02 08:43:15;;;;;;;;;;;4.60;64.00;;;;;;5079329;28;19920;-85
2022/03/02 08:45:47;;;;;;;;;;;4.70;63.60;;;;;;5079478;28;19958;-86
2022/03/02 08:48:14;;;;;;;;;;;4.90;62.60;;;;;;5083517;28;19912;-85
2022/03/02 08:50:40;;;;;;;;;;;5.00;62.90;;;;;;5083342;28;19924;-85
2022/03/02 08:53:06;;;;;;;;;;;5.10;62.00;;;;;;5080360;28;19965;-85
2022/03/02 08:55:32;;;;;;;;;;;5.20;62.60;;;;;;5085862;28;19995;-85
2022/03/02 08:57:58;;;;;;;;;;;5.40;63.50;;;;;;5082257;28;19920;-85
2022/03/02 09:00:24;;;;;;;;;;;5.60;64.50;;;;;;5082754;28;20234;-85
2022/03/02 09:02:51;;;;;;;;;;;5.70;61.30;;;;;;5066924;28;20353;-85
2022/03/02 09:05:17;;;;;;;;;;;5.70;60.20;;;;;;5067453;28;19966;-84
2022/03/02 09:07:43;;;;;;;;;;;5.70;60.90;;;;;;5073805;28;19913;-85
2022/03/02 09:10:08;;;;;;;;;;;5.90;60.20;;;;;;5073615;28;19917;-86
2022/03/02 09:12:34;;;;;;;;;;;6.00;62.70;;;;;;5068413;28;20441;-86
2022/03/02 09:15:00;;;;;;;;;;;6.00;61.50;;;;;;5070099;28;19917;-85
2022/03/02 09:17:25;;;;;;;;;;;6.30;60.30;;;;;;5073895;28;20034;-85
2022/03/02 09:19:55;;;;;;;;;;;6.40;59.60;;;;;;5082271;28;19909;-85
2022/03/02 09:22:21;;;;;;;;;;;6.40;59.20;;;;;;5066526;28;19919;-85
2022/03/02 09:24:47;;;;;;;;;;;6.40;59.50;;;;;;5071035;28;19967;-85
2022/03/02 09:27:13;;;;;;;;;;;6.50;59.70;;;;;;5077531;28;19916;-85
2022/03/02 09:29:42;;;;;;;;;;;6.50;60.10;;;;;;5076784;28;19920;-85
2022/03/02 09:32:08;;;;;;;;;;;6.70;61.70;;;;;;5073803;28;19920;-86
2022/03/02 09:34:34;;;;;;;;;;;6.80;59.60;;;;;;5082051;28;19912;-86
2022/03/02 09:36:59;;;;;;;;;;;6.90;59.80;;;;;;5065533;28;19921;-86
2022/03/02 09:39:26;;;;;;;;;;;7.00;60.00;;;;;;5062917;28;19959;-86
2022/03/02 09:42:00;;;;;;;;;;;7.20;60.10;;;;;;5071415;28;19920;-86
2022/03/02 09:44:31;;;;;;;;;;;7.30;58.20;;;;;;5069597;28;19920;-85
2022/03/02 09:46:58;;;;;;;;;;;7.40;58.70;;;;;;5071931;28;19923;-85
2022/03/02 09:49:27;;;;;;;;;;;7.40;59.30;;;;;;5074147;28;19956;-85
2022/03/02 09:51:59;;;;;;;;;;;7.40;59.90;;;;;;5077071;28;20462;-85
2022/03/02 09:54:25;;;;;;;;;;;7.50;58.90;;;;;;5073815;28;20281;-85
2022/03/02 09:56:51;;;;;;;;;;;7.60;60.30;;;;;;5082498;28;19994;-85
2022/03/02 09:59:17;;;;;;;;;;;7.80;56.90;;;;;;5075509;28;19912;-85
2022/03/02 10:01:44;;;;;;;;;;;7.80;56.00;;;;;;5083587;28;19919;-85
2022/03/02 10:04:17;;;;;;;;;;;7.70;56.50;;;;;;5080209;28;19912;-85
2022/03/02 10:06:43;;;;;;;;;;;7.90;56.30;;;;;;5072562;28;19939;-85
2022/03/02 10:09:10;;;;;;;;;;;8.00;55.90;;;;;;5068940;28;19921;-86
2022/03/02 10:11:36;;;;;;;;;;;8.20;56.00;;;;;;5069676;28;19916;-86
2022/03/02 10:14:01;;;;;;;;;;;8.30;56.20;;;;;;5067357;28;19934;-86
2022/03/02 10:16:28;;;;;;;;;;;8.40;57.60;;;;;;5062129;28;19924;-86
2022/03/02 10:18:58;;;;;;;;;;;8.60;57.70;;;;;;5067406;28;19959;-86
2022/03/02 10:21:28;;;;;;;;;;;8.70;55.50;;;;;;5067885;28;19912;-86
2022/03/02 10:23:56;;;;;;;;;;;8.80;53.60;;;;;;5065055;28;19912;-85
2022/03/02 10:26:21;;;;;;;;;;;8.70;53.40;;;;;;5066770;28;19965;-85
2022/03/02 10:29:05;;;;;;;;;;;8.70;53.20;;;;;;5075500;28;19920;-85
2022/03/02 10:31:45;;;;;;;;;;;8.70;54.90;;;;;;5068375;28;19917;-85
2022/03/02 10:34:28;;;;;;;;;;;8.60;52.10;;;;;;5069288;28;19912;-85
2022/03/02 10:37:03;;;;;;;;;;;8.60;53.00;;;;;;5065870;28;19930;-85
2022/03/02 10:39:49;;;;;;;;;;;8.80;54.30;;;;;;5069207;28;19920;-86
2022/03/02 10:42:25;;;;;;;;;;;8.90;53.70;;;;;;5071532;28;20385;-86
2022/03/02 10:44:53;;;;;;;;;;;9.10;51.30;;;;;;5068337;28;19916;-86
2022/03/02 10:47:21;;;;;;;;;;;9.20;52.70;;;;;;5070967;28;19920;-86
2022/03/02 10:49:47;;;;;;;;;;;9.40;53.90;;;;;;5084575;28;19916;-86
2022/03/02 10:52:14;;;;;;;;;;;9.60;51.40;;;;;;5081500;28;19919;-86
2022/03/02 10:54:41;;;;;;;;;;;9.90;48.20;;;;;;5086015;28;20271;-86
2022/03/02 10:57:10;;;;;;;;;;;10.10;47.40;;;;;;5087079;28;20447;-86
2022/03/02 10:59:37;;;;;;;;;;;10.10;48.60;;;;;;5090305;28;19909;-85
2022/03/02 11:02:03;;;;;;;;;;;10.00;48.00;;;;;;5072686;28;19918;-86
2022/03/02 11:04:29;;;;;;;;;;;10.00;48.30;;;;;;5073423;28;19913;-85
2022/03/02 11:06:55;;;;;;;;;;;10.00;49.90;;;;;;5073693;28;19915;-85
2022/03/02 11:09:24;;;;;;;;;;;10.00;49.90;;;;;;5084850;28;19916;-85
2022/03/02 11:13:15;;;;;;;;;;;10.10;50.20;;;;;;5152124;27;19911;-86
2022/03/02 11:15:43;;;;;;;;;;;10.40;48.50;;;;;;5152249;27;19934;-85
2022/03/02 11:18:09;;;;;;;;;;;10.70;47.00;;;;;;5152153;27;19907;-86
2022/03/02 11:20:35;;;;;;;;;;;10.80;47.30;;;;;;5141200;27;20323;-86
2022/03/02 11:23:04;;;;;;;;;;;10.80;45.60;;;;;;5131375;28;20318;-86
2022/03/02 11:25:43;;;;;;;;;;;11.10;46.00;;;;;;5131191;28;20381;-86
2022/03/02 11:28:12;;;;;;;;;;;11.40;44.90;;;;;;5131238;28;19957;-86
2022/03/02 11:30:37;;;;;;;;;;;11.80;43.20;;;;;;5134532;27;20423;-85
2022/03/02 11:33:07;;;;;;;;;;;12.10;42.90;;;;;;5151815;27;19916;-86
2022/03/02 11:35:35;;;;;;;;;;;12.10;43.50;;;;;;5145916;27;19911;-86
2022/03/02 11:38:03;;;;;;;;;;;11.90;41.70;;;;;;5151761;27;20254;-86
2022/03/02 11:40:39;;;;;;;;;;;12.00;43.60;;;;;;5151798;27;19913;-85
2022/03/02 11:43:15;;;;;;;;;;;12.00;41.10;;;;;;5144187;27;19919;-86
2022/03/02 11:45:40;;;;;;;;;;;12.20;41.80;;;;;;5134358;27;19954;-85
2022/03/02 11:48:15;;;;;;;;;;;12.40;41.30;;;;;;5130983;28;20329;-86
2022/03/02 11:50:59;;;;;;;;;;;12.60;38.80;;;;;;5138078;27;19911;-86
2022/03/02 11:53:29;;;;;;;;;;;13.00;37.90;;;;;;5145413;27;19915;-86
2022/03/02 11:55:55;;;;;;;;;;;13.40;36.80;;;;;;5140490;27;20376;-86
2022/03/02 11:58:20;;;;;;;;;;;13.60;36.70;;;;;;5151448;27;19908;-86
2022/03/02 12:00:46;;;;;;;;;;;13.90;36.30;;;;;;5143382;27;20472;-86
2022/03/02 12:03:11;;;;;;;;;;;14.00;37.70;;;;;;5130694;28;19912;-86
2022/03/02 12:05:37;;;;;;;;;;;13.90;36.40;;;;;;5141295;27;19911;-86
2022/03/02 12:08:02;;;;;;;;;;;13.70;36.40;;;;;;5145670;27;20056;-86
2022/03/02 12:10:30;;;;;;;;;;;13.60;37.40;;;;;;5130378;28;19943;-86
2022/03/02 12:12:56;;;;;;;;;;;13.70;37.70;;;;;;5113948;28;19967;-85
2022/03/02 12:15:22;;;;;;;;;;;13.90;37.80;;;;;;5128439;28;19961;-85
2022/03/02 12:17:49;;;;;;;;;;;13.70;37.20;;;;;;5129066;28;19915;-86
2022/03/02 12:20:22;;;;;;;;;;;13.60;38.30;;;;;;5129762;28;19912;-86
2022/03/02 12:22:49;;;;;;;;;;;13.90;36.80;;;;;;5114098;28;19913;-86
2022/03/02 12:25:17;;;;;;;;;;;14.40;36.90;;;;;;5101059;28;19918;-86
2022/03/02 12:27:48;;;;;;;;;;;14.70;33.10;;;;;;5111930;28;19912;-87
2022/03/02 12:30:13;;;;;;;;;;;15.60;32.00;;;;;;5102503;28;20557;-87
2022/03/02 12:32:40;;;;;;;;;;;16.80;29.90;;;;;;5097280;27;20275;-87
2022/03/02 12:35:07;;;;;;;;;;;17.80;29.30;;;;;;5098977;28;20413;-87
2022/03/02 12:37:33;;;;;;;;;;;18.60;28.60;;;;;;5099054;28;19912;-87
2022/03/02 12:39:59;;;;;;;;;;;18.90;28.50;;;;;;5107364;27;20369;-86
2022/03/02 12:42:25;;;;;;;;;;;19.20;27.40;;;;;;5102183;28;19912;-86
2022/03/02 12:44:54;;;;;;;;;;;18.90;27.20;;;;;;5110383;28;19920;-86
2022/03/02 12:47:21;;;;;;;;;;;18.30;29.10;;;;;;5103778;28;19920;-86
2022/03/02 12:49:50;;;;;;;;;;;17.70;28.40;;;;;;5101608;28;19916;-86
2022/03/02 12:52:16;;;;;;;;;;;17.50;28.00;;;;;;5100193;28;20014;-87
2022/03/02 12:54:42;;;;;;;;;;;17.90;30.00;;;;;;5093015;28;19911;-87
2022/03/02 12:57:12;;;;;;;;;;;18.00;29.90;;;;;;5101179;28;19974;-86
2022/03/02 12:59:38;;;;;;;;;;;18.10;28.00;;;;;;5100587;28;20365;-86
2022/03/02 13:02:08;;;;;;;;;;;17.60;28.00;;;;;;5098707;28;19919;-87
2022/03/02 13:04:52;;;;;;;;;;;17.40;28.20;;;;;;5100472;28;19912;-86
2022/03/02 13:07:23;;;;;;;;;;;17.70;28.00;;;;;;5110446;27;20405;-87
2022/03/02 13:09:49;;;;;;;;;;;17.60;28.10;;;;;;5103765;28;20354;-87
2022/03/02 13:12:28;;;;;;;;;;;18.70;27.00;;;;;;5103137;27;19920;-87
2022/03/02 13:14:54;;;;;;;;;;;19.80;25.20;;;;;;5105516;28;20036;-87
2022/03/02 13:17:20;;;;;;;;;;;19.60;24.60;;;;;;5102882;28;20362;-86
2022/03/02 13:19:47;;;;;;;;;;;18.80;26.40;;;;;;5104624;28;19962;-86
2022/03/02 13:22:29;;;;;;;;;;;19.00;25.50;;;;;;5101213;28;19912;-86
2022/03/02 13:24:56;;;;;;;;;;;18.60;26.50;;;;;;5107898;27;19934;-87
2022/03/02 13:27:23;;;;;;;;;;;18.80;26.40;;;;;;5100889;28;19947;-87
2022/03/02 13:29:50;;;;;;;;;;;18.80;26.80;;;;;;5098951;27;20330;-86
2022/03/02 13:32:16;;;;;;;;;;;19.00;26.70;;;;;;5098731;28;19920;-87
2022/03/02 13:35:01;;;;;;;;;;;19.40;27.00;;;;;;5097657;28;19966;-87
2022/03/02 13:37:47;;;;;;;;;;;19.40;25.30;;;;;;5103312;28;20362;-86
2022/03/02 13:40:32;;;;;;;;;;;19.30;26.50;;;;;;5100268;27;19912;-87
2022/03/02 13:43:10;;;;;;;;;;;19.40;26.60;;;;;;5100062;27;19920;-87
2022/03/02 13:45:40;;;;;;;;;;;19.10;26.70;;;;;;5095974;28;19912;-86
2022/03/02 13:48:15;;;;;;;;;;;19.90;27.20;;;;;;5113141;28;20318;-87
2022/03/02 13:51:12;;;;;;;;;;;20.10;25.50;;;;;;5108454;28;19911;-86
2022/03/02 13:53:38;;;;;;;;;;;20.50;24.70;;;;;;5082732;28;19923;-86
2022/03/02 13:56:04;;;;;;;;;;;20.50;24.50;;;;;;5104451;28;19911;-86
2022/03/02 13:58:30;;;;;;;;;;;19.60;25.40;;;;;;5099388;28;19912;-86
2022/03/02 14:01:10;;;;;;;;;;;18.10;26.80;;;;;;5103408;28;19912;-86
2022/03/02 14:03:39;;;;;;;;;;;17.30;27.60;;;;;;5099124;28;19918;-86
2022/03/02 14:06:06;;;;;;;;;;;16.80;29.60;;;;;;5103893;28;19935;-86
2022/03/02 14:08:47;;;;;;;;;;;16.10;29.70;;;;;;5096771;28;19955;-86
2022/03/02 14:11:36;;;;;;;;;;;15.80;30.30;;;;;;5098489;28;19916;-87
2022/03/02 14:14:03;;;;;;;;;;;16.40;30.20;;;;;;5087685;28;19911;-86
2022/03/02 14:16:29;;;;;;;;;;;16.60;29.70;;;;;;5100398;28;19912;-86
2022/03/02 14:19:12;;;;;;;;;;;15.80;31.10;;;;;;5103870;28;20282;-86
2022/03/02 14:21:39;;;;;;;;;;;15.30;33.10;;;;;;5103565;28;19911;-86
2022/03/02 14:24:16;;;;;;;;;;;15.40;31.80;;;;;;5101107;28;19939;-86
2022/03/02 14:26:52;;;;;;;;;;;15.60;31.90;;;;;;5103482;28;19919;-86
2022/03/02 14:29:20;;;;;;;;;;;15.60;33.10;;;;;;5099108;28;19912;-85
2022/03/02 14:31:56;;;;;;;;;;;14.40;33.70;;;;;;5100400;28;19928;-85
2022/03/02 14:34:22;;;;;;;;;;;13.90;36.10;;;;;;5108493;28;19912;-85
2022/03/02 14:36:48;;;;;;;;;;;13.60;35.20;;;;;;5080467;28;20356;-86
2022/03/02 14:39:13;;;;;;;;;;;13.20;37.00;;;;;;5111300;27;19943;-87
2022/03/02 14:41:39;;;;;;;;;;;13.20;36.70;;;;;;5106499;28;19947;-85
2022/03/02 14:44:14;;;;;;;;;;;13.30;36.10;;;;;;5094271;28;19920;-86
2022/03/02 14:46:40;;;;;;;;;;;13.30;37.70;;;;;;5103703;28;20037;-86
2022/03/02 14:49:07;;;;;;;;;;;13.40;36.50;;;;;;5101147;28;19950;-86
2022/03/02 14:51:32;;;;;;;;;;;13.90;35.60;;;;;;5084515;28;20415;-86
2022/03/02 14:53:58;;;;;;;;;;;14.10;35.40;;;;;;5093754;28;19951;-86
2022/03/02 14:56:26;;;;;;;;;;;14.40;34.90;;;;;;5094844;28;19916;-87
2022/03/02 14:58:52;;;;;;;;;;;14.70;34.80;;;;;;5095260;28;19916;-87
2022/03/02 15:01:22;;;;;;;;;;;14.80;33.20;;;;;;5095951;28;19926;-87
2022/03/02 15:03:51;;;;;;;;;;;14.60;33.80;;;;;;5100183;28;19920;-86
2022/03/02 15:06:18;;;;;;;;;;;14.50;34.40;;;;;;5105617;28;19916;-86
2022/03/02 15:08:46;;;;;;;;;;;14.30;35.80;;;;;;5105483;28;20371;-86
2022/03/02 15:11:24;;;;;;;;;;;13.90;35.80;;;;;;5098374;28;20237;-86
2022/03/02 15:16:49;;;;;;;;;;;13.30;35.50;;;;;;5099682;28;20364;-86
2022/03/02 15:19:16;;;;;;;;;;;13.10;36.10;;;;;;5082682;28;20376;-86
2022/03/02 15:21:43;;;;;;;;;;;12.90;36.90;;;;;;5101157;28;19912;-87
2022/03/02 15:24:09;;;;;;;;;;;12.90;37.70;;;;;;5104178;28;19912;-86
2022/03/02 15:26:34;;;;;;;;;;;12.90;37.40;;;;;;5105831;28;19920;-86